Check out our new BloomSky Weather System.

Active alerts

Galveston, TX
  Details for Galveston, TX Coastal Flood Advisory  +3 additional alerts
Fort Bend, TX
  Details for Fort Bend, TX Flash Flood Watch


Thunder radar  blitzortung!


Rain radar more information rain snow radar


Visit our other weather sites:

Template documentation
and downloads

And another site



Weather Underground History page Text

Daily Summary for September 1, 2017 Units:  English    Metric   Both
« Previous Day
Next Day »
Daily Weekly Monthly Yearly Custom
  High: Low: Average:
Temperature: TemperatureF °F 69.6 °F 80.7 °F
Dew Point: DewpointF °F 68.4 °F 71.7 °F
Humidity: Humidity % 50 % 76 %
Wind Speed: WindSpeedMPH mph 0.0 mph 0.7 mph
Wind Gust: WindSpeedGustMPH mph - -
Wind:- - SSE
Pressure: PressureIn in 29.92 in -
Precipitation: 0.00 in    
Historical Graphs
 
 
Tabular Data for September 1, 2017
Time Temperature Dew Point Pressure Wind Wind Speed Wind Gust Humidity Rainfall Rate (Hourly)
TemperatureF °F DewpointF °F PressureIn in Calm     Humidity % HourlyPrecipIn in
00:04 73.9 °F 71.1 °F 29.93 in Calm     91 % 0.00 in
00:09 73.9 °F 71.1 °F 29.93 in Calm     91 % 0.00 in
00:14 73.8 °F 71.2 °F 29.93 in Calm     92 % 0.00 in
00:19 73.8 °F 71.2 °F 29.93 in Calm     92 % 0.00 in
00:24 73.8 °F 71.6 °F 29.92 in Calm     93 % 0.00 in
00:29 73.8 °F 71.2 °F 29.93 in Calm     92 % 0.00 in
00:34 73.6 °F 71.1 °F 29.93 in Calm     92 % 0.00 in
00:39 73.2 °F 71.1 °F 29.93 in Calm     93 % 0.00 in
00:44 73.2 °F 71.1 °F 29.93 in Calm     93 % 0.00 in
00:49 73.2 °F 71.4 °F 29.93 in Calm     94 % 0.00 in
00:54 73.2 °F 71.1 °F 29.92 in Calm     93 % 0.00 in
00:56 73.0 °F 70.9 °F 29.92 in Calm     93 % 0.00 in
01:01 73.0 °F 70.9 °F 29.92 in Calm     93 % 0.00 in
01:06 73.0 °F 71.2 °F 29.93 in Calm     94 % 0.00 in
01:11 73.0 °F 71.2 °F 29.93 in Calm     94 % 0.00 in
01:16 73.0 °F 71.2 °F 29.93 in Calm     94 % 0.00 in
01:21 73.0 °F 71.2 °F 29.93 in Calm     94 % 0.00 in
01:26 72.9 °F 71.1 °F 29.93 in Calm     94 % 0.00 in
01:31 72.9 °F 71.1 °F 29.93 in Calm     94 % 0.00 in
01:36 72.7 °F 70.9 °F 29.93 in Calm     94 % 0.00 in
01:41 72.5 °F 70.7 °F 29.92 in Calm     94 % 0.00 in
01:46 72.5 °F 71.1 °F 29.92 in Calm     95 % 0.00 in
01:51 72.5 °F 71.1 °F 29.93 in Calm     95 % 0.00 in
01:56 72.3 °F 70.5 °F 29.92 in Calm     94 % 0.00 in
02:01 72.3 °F 70.9 °F 29.92 in Calm     95 % 0.00 in
02:06 72.1 °F 70.7 °F 29.93 in Calm     95 % 0.00 in
02:11 72.1 °F 70.3 °F 29.93 in Calm     94 % 0.00 in
02:16 72.0 °F 70.2 °F 29.93 in Calm     94 % 0.00 in
02:21 72.0 °F 70.5 °F 29.93 in Calm     95 % 0.00 in
02:26 71.8 °F 70.3 °F 29.93 in Calm     95 % 0.00 in
02:31 71.8 °F 70.3 °F 29.93 in Calm     95 % 0.00 in
02:36 72.0 °F 70.5 °F 29.93 in Calm     95 % 0.00 in
02:41 71.8 °F 70.3 °F 29.93 in Calm     95 % 0.00 in
02:46 71.8 °F 70.3 °F 29.93 in Calm     95 % 0.00 in
02:51 71.6 °F 70.2 °F 29.93 in Calm     95 % 0.00 in
02:56 71.6 °F 70.2 °F 29.93 in Calm     95 % 0.00 in
03:01 71.6 °F 70.2 °F 29.93 in Calm     95 % 0.00 in
03:06 71.8 °F 70.3 °F 29.92 in Calm   2.0 mph 95 % 0.00 in
03:11 71.8 °F 70.3 °F 29.92 in Calm   2.0 mph 95 % 0.00 in
03:16 71.6 °F 70.2 °F 29.93 in SE 1.0 mph 2.0 mph 95 % 0.00 in
03:17 71.6 °F 70.2 °F 29.93 in SE 1.0 mph 2.0 mph 95 % 0.00 in
03:22 71.6 °F 70.3 °F 29.93 in Calm   2.0 mph 96 % 0.00 in
03:27 71.4 °F 70.0 °F 29.93 in Calm   2.0 mph 95 % 0.00 in
03:32 71.2 °F 69.8 °F 29.93 in Calm   2.0 mph 95 % 0.00 in
03:37 71.2 °F 69.8 °F 29.93 in Calm     95 % 0.00 in
03:42 71.1 °F 69.6 °F 29.93 in Calm     95 % 0.00 in
03:47 71.1 °F 69.6 °F 29.93 in Calm     95 % 0.00 in
03:52 71.2 °F 69.8 °F 29.93 in Calm     95 % 0.00 in
03:57 71.1 °F 69.6 °F 29.94 in Calm     95 % 0.00 in
04:02 71.1 °F 69.6 °F 29.94 in Calm     95 % 0.00 in
04:07 71.1 °F 69.6 °F 29.94 in Calm     95 % 0.00 in
04:12 71.1 °F 69.6 °F 29.94 in Calm     95 % 0.00 in
04:17 71.1 °F 69.6 °F 29.94 in Calm     95 % 0.00 in
04:22 71.1 °F 69.6 °F 29.94 in Calm     95 % 0.00 in
04:27 71.1 °F 69.6 °F 29.94 in Calm     95 % 0.00 in
04:32 71.1 °F 69.6 °F 29.94 in Calm     95 % 0.00 in
04:37 71.1 °F 69.6 °F 29.94 in Calm     95 % 0.00 in
04:42 70.9 °F 69.4 °F 29.94 in Calm     95 % 0.00 in
04:45 70.9 °F 69.4 °F 29.94 in Calm     95 % 0.00 in
04:50 70.7 °F 69.3 °F 29.94 in Calm     95 % 0.00 in
04:55 70.5 °F 69.1 °F 29.93 in Calm     95 % 0.00 in
05:00 70.5 °F 69.1 °F 29.94 in Calm     95 % 0.00 in
05:05 70.3 °F 68.9 °F 29.94 in Calm     95 % 0.00 in
05:10 70.3 °F 68.9 °F 29.94 in Calm     95 % 0.00 in
05:15 70.3 °F 68.9 °F 29.94 in Calm     95 % 0.00 in
05:20 70.2 °F 68.7 °F 29.94 in Calm     95 % 0.00 in
05:25 70.0 °F 68.7 °F 29.94 in Calm     96 % 0.00 in
05:30 70.0 °F 68.7 °F 29.94 in Calm     96 % 0.00 in
05:35 70.0 °F 68.7 °F 29.94 in Calm     96 % 0.00 in
05:40 70.0 °F 68.7 °F 29.94 in Calm     96 % 0.00 in
05:45 69.8 °F 68.5 °F 29.95 in Calm     96 % 0.00 in
05:50 69.6 °F 68.4 °F 29.95 in Calm     96 % 0.00 in
05:55 69.6 °F 68.4 °F 29.95 in Calm     96 % 0.00 in
06:00 69.6 °F 68.4 °F 29.96 in Calm     96 % 0.00 in
06:05 69.8 °F 68.9 °F 29.96 in Calm     97 % 0.00 in
06:10 69.8 °F 68.9 °F 29.96 in Calm     97 % 0.00 in
06:15 70.0 °F 69.1 °F 29.96 in Calm     97 % 0.00 in
06:20 70.2 °F 69.3 °F 29.96 in Calm     97 % 0.00 in
06:25 70.3 °F 69.4 °F 29.96 in Calm   1.0 mph 97 % 0.00 in
06:30 70.3 °F 69.1 °F 29.96 in Calm   1.0 mph 96 % 0.00 in
06:35 70.2 °F 68.9 °F 29.96 in Calm   1.0 mph 96 % 0.00 in
06:40 70.2 °F 68.9 °F 29.96 in Calm     96 % 0.00 in
06:45 70.3 °F 69.4 °F 29.97 in Calm     97 % 0.00 in
06:50 70.3 °F 69.1 °F 29.97 in Calm     96 % 0.00 in
06:55 70.2 °F 68.9 °F 29.97 in Calm     96 % 0.00 in
07:00 70.2 °F 68.9 °F 29.98 in Calm     96 % 0.00 in
07:05 70.2 °F 68.9 °F 29.98 in Calm     96 % 0.00 in
07:10 70.2 °F 69.3 °F 29.98 in Calm     97 % 0.00 in
07:15 70.2 °F 69.3 °F 29.98 in Calm     97 % 0.00 in
07:20 70.3 °F 69.4 °F 29.98 in Calm   1.0 mph 97 % 0.00 in
07:25 70.5 °F 69.6 °F 29.98 in Calm   2.0 mph 97 % 0.00 in
07:30 70.7 °F 69.4 °F 29.98 in Calm   2.0 mph 96 % 0.00 in
07:35 70.9 °F 69.6 °F 29.99 in Calm   2.0 mph 96 % 0.00 in
07:40 71.1 °F 69.8 °F 29.99 in Calm   2.0 mph 96 % 0.00 in
07:45 71.2 °F 70.0 °F 29.99 in Calm   2.0 mph 96 % 0.00 in
07:50 71.6 °F 70.3 °F 29.99 in Calm   1.0 mph 96 % 0.00 in
07:55 72.0 °F 70.7 °F 29.99 in WNW 1.0 mph 1.0 mph 96 % 0.00 in
08:00 72.5 °F 71.1 °F 29.99 in Calm   2.0 mph 95 % 0.00 in
08:05 73.0 °F 71.6 °F 29.99 in Calm   2.0 mph 95 % 0.00 in
08:10 73.8 °F 72.3 °F 29.99 in Calm   2.0 mph 95 % 0.00 in
08:15 74.7 °F 72.5 °F 29.99 in Calm   1.0 mph 93 % 0.00 in
08:20 75.4 °F 72.9 °F 29.99 in Calm   1.0 mph 92 % 0.00 in
08:25 75.9 °F 72.9 °F 29.99 in Calm   1.0 mph 90 % 0.00 in
08:30 76.6 °F 73.2 °F 29.99 in Calm   1.0 mph 89 % 0.00 in
08:35 77.2 °F 73.4 °F 29.99 in Calm   2.0 mph 88 % 0.00 in
08:40 77.7 °F 73.2 °F 29.99 in NW 1.0 mph 3.0 mph 86 % 0.00 in
08:45 78.1 °F 73.2 °F 29.99 in Calm   3.0 mph 85 % 0.00 in
08:50 79.0 °F 73.8 °F 29.99 in Calm   3.0 mph 84 % 0.00 in
08:55 79.7 °F 74.1 °F 29.99 in NW 1.0 mph 2.0 mph 83 % 0.00 in
09:00 80.2 °F 74.3 °F 29.99 in Calm   2.0 mph 82 % 0.00 in
09:05 81.1 °F 74.3 °F 29.99 in Calm   2.0 mph 80 % 0.00 in
09:10 81.7 °F 74.8 °F 30.00 in Calm   2.0 mph 80 % 0.00 in
09:15 82.2 °F 75.0 °F 30.00 in East 1.0 mph 3.0 mph 79 % 0.00 in
09:20 82.8 °F 74.5 °F 30.00 in ESE 3.0 mph 5.0 mph 76 % 0.00 in
09:21 82.8 °F 74.5 °F 30.00 in SSW 1.0 mph 5.0 mph 76 % 0.00 in
09:26 82.8 °F 74.8 °F 30.00 in Calm   5.0 mph 77 % 0.00 in
09:31 82.9 °F 74.7 °F 30.00 in Calm   6.0 mph 76 % 0.00 in
09:36 83.1 °F 74.3 °F 30.00 in ESE 1.0 mph 6.0 mph 75 % 0.00 in
09:41 83.7 °F 75.2 °F 30.00 in NE 1.0 mph 6.0 mph 76 % 0.00 in
09:46 83.8 °F 74.3 °F 30.01 in ENE 2.0 mph 4.0 mph 73 % 0.00 in
09:51 84.0 °F 74.8 °F 30.01 in East 2.0 mph 4.0 mph 74 % 0.00 in
09:56 84.2 °F 74.1 °F 30.01 in Calm   4.0 mph 72 % 0.00 in
10:01 84.6 °F 75.0 °F 30.01 in ESE 1.0 mph 5.0 mph 73 % 0.00 in
10:06 84.9 °F 75.2 °F 30.01 in North 2.0 mph 5.0 mph 73 % 0.00 in
10:11 84.9 °F 74.8 °F 30.01 in NE 5.0 mph 5.0 mph 72 % 0.00 in
10:13 84.7 °F 74.3 °F 30.01 in Calm   5.0 mph 71 % 0.00 in
10:18 84.9 °F 74.5 °F 30.01 in SSE 2.0 mph 5.0 mph 71 % 0.00 in
10:23 85.3 °F 75.2 °F 30.01 in NE 2.0 mph 8.0 mph 72 % 0.00 in
10:28 85.3 °F 74.3 °F 30.01 in SSE 1.0 mph 8.0 mph 70 % 0.00 in
10:33 85.5 °F 74.5 °F 30.01 in Calm   8.0 mph 70 % 0.00 in
10:38 85.6 °F 74.7 °F 30.01 in NNW 3.0 mph 7.0 mph 70 % 0.00 in
10:43 86.0 °F 75.6 °F 30.01 in South 4.0 mph 7.0 mph 71 % 0.00 in
10:49 86.2 °F 74.3 °F 30.01 in NNE 1.0 mph 6.0 mph 68 % 0.00 in
10:54 85.8 °F 73.9 °F 30.01 in NNW 1.0 mph 7.0 mph 68 % 0.00 in
10:59 86.2 °F 74.3 °F 30.01 in SE 6.0 mph 7.0 mph 68 % 0.00 in
11:04 86.2 °F 73.9 °F 30.01 in ESE 4.0 mph 7.0 mph 67 % 0.00 in
11:09 86.2 °F 73.9 °F 30.01 in East 1.0 mph 6.0 mph 67 % 0.00 in
11:14 86.4 °F 73.6 °F 30.01 in ESE 2.0 mph 6.0 mph 66 % 0.00 in
11:19 86.9 °F 74.7 °F 30.01 in Calm   6.0 mph 67 % 0.00 in
11:24 87.4 °F 74.3 °F 30.01 in SE 1.0 mph 6.0 mph 65 % 0.00 in
11:29 87.6 °F 73.9 °F 30.01 in ENE 2.0 mph 6.0 mph 64 % 0.00 in
11:34 87.6 °F 73.4 °F 30.01 in NE 3.0 mph 5.0 mph 63 % 0.00 in
11:39 87.1 °F 73.4 °F 30.01 in Calm   9.0 mph 64 % 0.00 in
11:44 87.4 °F 73.8 °F 30.01 in NW 1.0 mph 9.0 mph 64 % 0.00 in
11:49 88.0 °F 73.4 °F 30.01 in ESE 2.0 mph 9.0 mph 62 % 0.00 in
11:54 88.0 °F 73.4 °F 30.01 in ENE 3.0 mph 6.0 mph 62 % 0.00 in
11:59 88.0 °F 73.8 °F 30.01 in NNW 3.0 mph 8.0 mph 63 % 0.00 in
12:04 88.3 °F 73.6 °F 30.01 in East 1.0 mph 8.0 mph 62 % 0.00 in
12:09 88.2 °F 73.0 °F 30.01 in Calm   8.0 mph 61 % 0.00 in
12:14 88.5 °F 74.8 °F 30.01 in NW 2.0 mph 5.0 mph 64 % 0.00 in
12:19 88.5 °F 73.8 °F 30.00 in East 3.0 mph 5.0 mph 62 % 0.00 in
12:24 88.5 °F 74.3 °F 30.00 in NNW 2.0 mph 5.0 mph 63 % 0.00 in
12:29 88.9 °F 73.8 °F 30.00 in ENE 2.0 mph 5.0 mph 61 % 0.00 in
12:34 88.9 °F 73.8 °F 30.00 in NW 2.0 mph 6.0 mph 61 % 0.00 in
12:40 89.2 °F 73.6 °F 30.00 in NNE 1.0 mph 6.0 mph 60 % 0.00 in
12:45 89.4 °F 72.7 °F 30.00 in ESE 2.0 mph 6.0 mph 58 % 0.00 in
12:50 89.4 °F 73.8 °F 30.00 in ESE 5.0 mph 6.0 mph 60 % 0.00 in
12:55 89.8 °F 73.6 °F 30.00 in Calm   5.0 mph 59 % 0.00 in
13:01 90.1 °F 73.4 °F 29.99 in SW 1.0 mph 7.0 mph 58 % 0.00 in
13:05 90.7 °F 72.9 °F 29.99 in SSE 4.0 mph 7.0 mph 56 % 0.00 in
13:11 90.1 °F 72.3 °F 29.99 in Calm   7.0 mph 56 % 0.00 in
13:16 89.8 °F 72.5 °F 29.99 in NNW 2.0 mph 6.0 mph 57 % 0.00 in
13:21 89.4 °F 72.7 °F 29.99 in North 1.0 mph 6.0 mph 58 % 0.00 in
13:26 89.6 °F 72.9 °F 29.99 in Calm   6.0 mph 58 % 0.00 in
13:31 90.1 °F 72.9 °F 29.99 in SSE 3.0 mph 6.0 mph 57 % 0.00 in
13:36 90.7 °F 73.4 °F 29.99 in SE 2.0 mph 5.0 mph 57 % 0.00 in
13:41 91.0 °F 75.2 °F 29.99 in Calm   5.0 mph 60 % 0.00 in
13:46 91.2 °F 73.4 °F 29.99 in SE 1.0 mph 6.0 mph 56 % 0.00 in
13:51 91.8 °F 74.8 °F 29.98 in ESE 3.0 mph 6.0 mph 58 % 0.00 in
13:56 91.2 °F 72.9 °F 29.99 in ENE 2.0 mph 8.0 mph 55 % 0.00 in
14:01 90.3 °F 72.5 °F 29.99 in NNW 1.0 mph 8.0 mph 56 % 0.00 in
14:06 90.3 °F 72.5 °F 29.99 in Calm   8.0 mph 56 % 0.00 in
14:11 90.5 °F 70.5 °F 29.98 in NNW 3.0 mph 6.0 mph 52 % 0.00 in
14:16 90.3 °F 71.4 °F 29.98 in Calm   6.0 mph 54 % 0.00 in
14:21 90.3 °F 71.4 °F 29.98 in WSW 1.0 mph 6.0 mph 54 % 0.00 in
14:26 90.3 °F 72.5 °F 29.98 in Calm   5.0 mph 56 % 0.00 in
14:31 90.1 °F 72.3 °F 29.97 in West 1.0 mph 3.0 mph 56 % 0.00 in
14:36 90.0 °F 72.1 °F 29.97 in NW 2.0 mph 3.0 mph 56 % 0.00 in
14:41 90.0 °F 72.1 °F 29.97 in NNW 1.0 mph 4.0 mph 56 % 0.00 in
14:46 89.6 °F 70.7 °F 29.97 in NNW 3.0 mph 4.0 mph 54 % 0.00 in
14:51 89.2 °F 71.4 °F 29.96 in Calm   4.0 mph 56 % 0.00 in
14:56 89.8 °F 73.0 °F 29.96 in Calm   3.0 mph 58 % 0.00 in
15:01 90.5 °F 71.6 °F 29.96 in North 2.0 mph 3.0 mph 54 % 0.00 in
15:06 90.5 °F 70.0 °F 29.96 in WNW 2.0 mph 4.0 mph 51 % 0.00 in
15:11 90.7 °F 71.2 °F 29.96 in NW 3.0 mph 4.0 mph 53 % 0.00 in
15:16 90.7 °F 71.2 °F 29.96 in NW 2.0 mph 4.0 mph 53 % 0.00 in
15:21 91.0 °F 70.3 °F 29.96 in Calm   4.0 mph 51 % 0.00 in
15:26 92.1 °F 70.9 °F 29.95 in East 2.0 mph 4.0 mph 50 % 0.00 in
15:31 92.1 °F 71.4 °F 29.95 in WNW 3.0 mph 5.0 mph 51 % 0.00 in
15:36 91.6 °F 71.4 °F 29.95 in NNW 1.0 mph 6.0 mph 52 % 0.00 in
15:41 91.6 °F 72.5 °F 29.95 in Calm   6.0 mph 54 % 0.00 in
15:46 91.9 °F 72.9 °F 29.95 in East 2.0 mph 6.0 mph 54 % 0.00 in
15:51 91.8 °F 71.1 °F 29.95 in NE 2.0 mph 6.0 mph 51 % 0.00 in
15:56 91.2 °F 71.1 °F 29.95 in East 1.0 mph 5.0 mph 52 % 0.00 in
16:01 90.7 °F 71.2 °F 29.94 in ENE 1.0 mph 5.0 mph 53 % 0.00 in
16:02 90.7 °F 71.2 °F 29.94 in ENE 2.0 mph 5.0 mph 53 % 0.00 in
16:07 90.1 °F 71.2 °F 29.94 in ENE 3.0 mph 5.0 mph 54 % 0.00 in
16:12 90.0 °F 71.6 °F 29.94 in ENE 3.0 mph 5.0 mph 55 % 0.00 in
16:17 90.0 °F 72.7 °F 29.94 in ENE 1.0 mph 4.0 mph 57 % 0.00 in
16:22 89.6 °F 71.8 °F 29.94 in East 1.0 mph 4.0 mph 56 % 0.00 in
16:27 89.4 °F 72.1 °F 29.94 in ESE 2.0 mph 4.0 mph 57 % 0.00 in
16:32 89.4 °F 72.1 °F 29.94 in NNE 2.0 mph 4.0 mph 57 % 0.00 in
16:37 89.2 °F 72.0 °F 29.94 in ESE 1.0 mph 4.0 mph 57 % 0.00 in
16:42 89.2 °F 71.4 °F 29.94 in NNW 3.0 mph 4.0 mph 56 % 0.00 in
16:47 89.1 °F 71.2 °F 29.94 in East 1.0 mph 4.0 mph 56 % 0.00 in
16:52 88.7 °F 71.1 °F 29.94 in East 2.0 mph 5.0 mph 56 % 0.00 in
16:57 88.7 °F 71.4 °F 29.94 in Calm   5.0 mph 57 % 0.00 in
17:02 88.9 °F 71.6 °F 29.94 in East 2.0 mph 5.0 mph 57 % 0.00 in
17:07 89.1 °F 71.8 °F 29.94 in ENE 3.0 mph 4.0 mph 57 % 0.00 in
17:12 89.2 °F 71.4 °F 29.94 in West 1.0 mph 4.0 mph 56 % 0.00 in
17:17 89.4 °F 72.1 °F 29.94 in ESE 2.0 mph 5.0 mph 57 % 0.00 in
17:22 89.2 °F 72.0 °F 29.94 in SSE 2.0 mph 5.0 mph 57 % 0.00 in
17:27 88.9 °F 71.6 °F 29.94 in ESE 1.0 mph 5.0 mph 57 % 0.00 in
17:32 88.9 °F 72.7 °F 29.94 in Calm   5.0 mph 59 % 0.00 in
17:37 89.2 °F 72.0 °F 29.94 in Calm   5.0 mph 57 % 0.00 in
17:42 89.8 °F 72.0 °F 29.93 in Calm   4.0 mph 56 % 0.00 in
17:47 90.0 °F 71.6 °F 29.93 in NNW 1.0 mph 4.0 mph 55 % 0.00 in
17:52 90.3 °F 72.5 °F 29.94 in Calm   4.0 mph 56 % 0.00 in
17:57 90.9 °F 72.5 °F 29.94 in NNE 1.0 mph 4.0 mph 55 % 0.00 in
18:02 90.9 °F 72.0 °F 29.94 in ENE 3.0 mph 3.0 mph 54 % 0.00 in
18:07 90.7 °F 72.3 °F 29.94 in North 1.0 mph 7.0 mph 55 % 0.00 in
18:12 90.3 °F 72.0 °F 29.94 in Calm   7.0 mph 55 % 0.00 in
18:17 90.3 °F 72.0 °F 29.94 in Calm   7.0 mph 55 % 0.00 in
18:22 90.0 °F 71.6 °F 29.94 in NW 1.0 mph 5.0 mph 55 % 0.00 in
18:26 89.8 °F 70.9 °F 29.94 in NNW 3.0 mph 5.0 mph 54 % 0.00 in
18:31 89.4 °F 70.5 °F 29.94 in NE 1.0 mph 6.0 mph 54 % 0.00 in
18:36 89.4 °F 71.1 °F 29.94 in NNW 1.0 mph 6.0 mph 55 % 0.00 in
18:41 89.4 °F 71.6 °F 29.94 in ENE 2.0 mph 6.0 mph 56 % 0.00 in
18:46 89.2 °F 72.0 °F 29.94 in ENE 3.0 mph 4.0 mph 57 % 0.00 in
18:51 89.1 °F 72.3 °F 29.94 in NE 1.0 mph 4.0 mph 58 % 0.00 in
18:56 88.9 °F 72.1 °F 29.94 in NE 2.0 mph 3.0 mph 58 % 0.00 in
19:01 88.5 °F 71.8 °F 29.94 in Calm   3.0 mph 58 % 0.00 in
19:06 88.5 °F 71.8 °F 29.94 in Calm   2.0 mph 58 % 0.00 in
19:11 88.3 °F 71.6 °F 29.94 in Calm   2.0 mph 58 % 0.00 in
19:16 87.6 °F 71.6 °F 29.94 in Calm   2.0 mph 59 % 0.00 in
19:21 87.3 °F 71.2 °F 29.94 in Calm   2.0 mph 59 % 0.00 in
19:26 86.9 °F 71.4 °F 29.94 in Calm   2.0 mph 60 % 0.00 in
19:31 86.5 °F 71.1 °F 29.94 in Calm   2.0 mph 60 % 0.00 in
19:36 86.2 °F 70.7 °F 29.94 in Calm   1.0 mph 60 % 0.00 in
19:41 85.6 °F 70.7 °F 29.94 in Calm   1.0 mph 61 % 0.00 in
19:46 85.5 °F 70.9 °F 29.94 in Calm   1.0 mph 62 % 0.00 in
19:51 85.1 °F 70.5 °F 29.94 in Calm   1.0 mph 62 % 0.00 in
19:56 84.7 °F 70.7 °F 29.95 in Calm   1.0 mph 63 % 0.00 in
20:01 84.4 °F 70.9 °F 29.95 in Calm   1.0 mph 64 % 0.00 in
20:06 84.0 °F 71.1 °F 29.95 in Calm   1.0 mph 65 % 0.00 in
20:11 83.7 °F 71.1 °F 29.95 in Calm   1.0 mph 66 % 0.00 in
20:16 83.7 °F 71.1 °F 29.95 in Calm   1.0 mph 66 % 0.00 in
20:17 83.5 °F 70.9 °F 29.95 in Calm   1.0 mph 66 % 0.00 in
20:22 83.3 °F 71.2 °F 29.95 in Calm   1.0 mph 67 % 0.00 in
20:27 83.1 °F 71.4 °F 29.96 in Calm   1.0 mph 68 % 0.00 in
20:32 82.9 °F 71.2 °F 29.96 in Calm   1.0 mph 68 % 0.00 in
20:37 82.8 °F 71.6 °F 29.96 in Calm   1.0 mph 69 % 0.00 in
20:42 82.8 °F 72.0 °F 29.96 in Calm   2.0 mph 70 % 0.00 in
20:47 82.8 °F 72.0 °F 29.96 in Calm   2.0 mph 70 % 0.00 in
20:52 82.6 °F 72.1 °F 29.96 in SE 1.0 mph 2.0 mph 71 % 0.00 in
20:57 82.6 °F 72.1 °F 29.96 in Calm   1.0 mph 71 % 0.00 in
21:02 82.6 °F 72.7 °F 29.96 in Calm   1.0 mph 72 % 0.00 in
21:08 82.6 °F 73.0 °F 29.96 in Calm   3.0 mph 73 % 0.00 in
21:13 82.4 °F 72.9 °F 29.97 in ESE 2.0 mph 3.0 mph 73 % 0.00 in
21:18 82.4 °F 73.2 °F 29.97 in ESE 1.0 mph 3.0 mph 74 % 0.00 in
21:23 82.2 °F 73.6 °F 29.97 in Calm   3.0 mph 75 % 0.00 in
21:28 82.0 °F 73.4 °F 29.98 in Calm   3.0 mph 75 % 0.00 in
21:33 82.0 °F 73.8 °F 29.98 in Calm   3.0 mph 76 % 0.00 in
21:38 81.9 °F 73.9 °F 29.98 in Calm   2.0 mph 77 % 0.00 in
21:43 81.5 °F 73.6 °F 29.98 in Calm   2.0 mph 77 % 0.00 in
21:48 81.1 °F 73.6 °F 29.98 in Calm   1.0 mph 78 % 0.00 in
21:53 81.0 °F 73.4 °F 29.98 in Calm   1.0 mph 78 % 0.00 in
21:58 81.0 °F 73.8 °F 29.98 in Calm   2.0 mph 79 % 0.00 in
22:03 80.8 °F 73.6 °F 29.98 in Calm   2.0 mph 79 % 0.00 in
22:08 80.4 °F 73.8 °F 29.98 in Calm   2.0 mph 80 % 0.00 in
22:13 80.2 °F 73.6 °F 29.99 in Calm   2.0 mph 80 % 0.00 in
22:19 80.1 °F 73.8 °F 29.99 in South 2.0 mph 2.0 mph 81 % 0.00 in
22:23 79.9 °F 73.9 °F 29.99 in Calm   2.0 mph 82 % 0.00 in
22:24 79.9 °F 73.9 °F 29.99 in Calm   2.0 mph 82 % 0.00 in
22:27 79.9 °F 73.9 °F 29.99 in SE 1.0 mph 2.0 mph 82 % 0.00 in
22:28 79.9 °F 74.3 °F 29.99 in ESE 3.0 mph 3.0 mph 83 % 0.00 in
22:31 79.9 °F 74.3 °F 29.99 in SE 1.0 mph 3.0 mph 83 % 0.00 in
22:34 80.1 °F 74.5 °F 30.00 in SE 2.0 mph 3.0 mph 83 % 0.00 in
22:36 80.1 °F 74.5 °F 29.99 in Calm   3.0 mph 83 % 0.00 in
22:41 80.1 °F 74.5 °F 29.99 in Calm   3.0 mph 83 % 0.00 in
22:46 80.1 °F 74.5 °F 30.00 in Calm   3.0 mph 83 % 0.00 in
22:51 79.9 °F 74.7 °F 30.00 in Calm   2.0 mph 84 % 0.00 in
22:56 79.7 °F 74.8 °F 30.00 in SE 1.0 mph 2.0 mph 85 % 0.00 in
23:01 79.5 °F 74.7 °F 30.00 in Calm   2.0 mph 85 % 0.00 in
23:06 79.3 °F 74.8 °F 30.00 in Calm   2.0 mph 86 % 0.00 in
23:11 79.3 °F 74.8 °F 30.00 in ESE 1.0 mph 2.0 mph 86 % 0.00 in
23:16 79.2 °F 74.7 °F 30.00 in Calm   1.0 mph 86 % 0.00 in
23:22 79.0 °F 74.5 °F 30.01 in Calm   1.0 mph 86 % 0.00 in
23:27 78.6 °F 74.5 °F 30.01 in South 1.0 mph 1.0 mph 87 % 0.00 in
23:32 78.4 °F 74.7 °F 30.01 in Calm   1.0 mph 88 % 0.00 in
23:37 78.3 °F 74.5 °F 30.01 in Calm   1.0 mph 88 % 0.00 in
23:42 77.9 °F 74.1 °F 30.01 in Calm   1.0 mph 88 % 0.00 in
23:47 77.5 °F 74.1 °F 30.00 in Calm     89 % 0.00 in
23:52 77.4 °F 73.9 °F 30.00 in Calm     89 % 0.00 in
23:57 77.2 °F 73.9 °F 30.00 in Calm     90 % 0.00 in
Spring, Texas: Villages of Bridgestone
Compliments of Weather Underground - 3.25 mb

Script developed by  Jim McMurry - jmcmurry@mwt.net Adapted for the template by  Wim van der Kuil - Leuven-Template.eu

You find our weather info also at:

UK Metoffice

WeatherCloud

Weather Underground

Mid-South Weather Network

AWEKAS

Citizen Weather Observer Program (CWOP)

HAMweather, WeatherForYou, PWS Weather

Equipment we use:

Weather-station
Davis Vantage Vue

Weather-program
Meteohub

Weather-server
Debian 7.9 x86 (Guest)

Provider
DreamHost

Davis Vantage Vue

Meteohub

Debian 7.9 x86 (Guest)

DreamHost